OITZ

Details ICAO OITZ
Name ZANJAN
Region Iran
Timezone Asia/Tehran (UTC+4.5)
Plans Departing 6
Arriving 6
Stats Elevation 5,382 ft / 1,640 m (AMSL)
Location 36.773649° 48.359420°
Runways 1
Magnetic Variation 5.217° E
Sunrise 2018-05-20 01:36:59 UTC / 2018-05-20 06:06:59 Local
Sunset 2018-05-20 15:52:01 UTC / 2018-05-20 20:22:01 Local
Advertisement - Login to hide

Runways

ID Width Length Bearing (true) Bearing (mag) Surface Threshold Offset Overrun Length
12 148 ft / 45 m 9,835 ft / 2,998 m 126.62° 121.40° Asphalt 0 ft / 0 m 190 ft / 58 m
30 148 ft / 45 m 9,835 ft / 2,998 m 306.64° 301.42° Asphalt 0 ft / 0 m 190 ft / 58 m

Map

Weather


0- 5 10 15 20 25 30 35+ Temperature / ° C

Clouds and Precipitation
Forecast for 2018-05-20 12:00 UTC. Updated 17 minutes ago

Ground ~20,000 ft ~40,000 ft Winds

METAR

OITZ 200900Z 21004KT 9999 SCT035 24/03 Q1020

TAF

Not found

Frequencies

Tower 122.95 MHz INFO
Tower 121.75 MHz INFO
Warning: Do not use this data for real-world aviation or navigation. No guarantee of current accuracy is given.